X  Tanca Dades meteorològiques de l'aviació METAR        EDDE Erfurt
Temperatura
14°C Temperatura
13°C Rosada
94% Humitat



Vent
11 KM/H
7 MPH
3 M/S
6 NUS



290°
ONO
Condicions actuals

Mostly Cloudy with Drizzle Força ennuvolat , Pluja
Pressió 1018 (hPa) - 30.06 (inHg)
Visibilitat 4 (milla) - 7 (km)
Aeroport
Codi aeroport EDDE

Ubicació: Erfurt
Distància: 25 (km)

Metar:
METAR EDDE 011020Z AUTO 29006KT 260V320 7000 -DZ FEW006 SCT010 BKN017 14/13 Q1018

Temps: 01.07.2022 12:20 CEST